sensor_id;sensor_type;location;lat;lon;timestamp;temperature;humidity
43991;DHT22;29654;50.784;20.604;2023-07-09T00:05:02;22.40;42.70
43991;DHT22;29654;50.784;20.604;2023-07-09T00:10:12;22.30;43.00
43991;DHT22;29654;50.784;20.604;2023-07-09T00:15:16;22.30;43.30
43991;DHT22;29654;50.784;20.604;2023-07-09T00:20:21;22.20;43.40
43991;DHT22;29654;50.784;20.604;2023-07-09T00:25:23;22.20;43.60
43991;DHT22;29654;50.784;20.604;2023-07-09T00:30:26;22.10;43.50
43991;DHT22;29654;50.784;20.604;2023-07-09T00:35:30;22.10;43.70
43991;DHT22;29654;50.784;20.604;2023-07-09T00:40:33;22.00;43.80
43991;DHT22;29654;50.784;20.604;2023-07-09T00:45:35;22.00;43.80
43991;DHT22;29654;50.784;20.604;2023-07-09T00:50:42;21.90;43.90
43991;DHT22;29654;50.784;20.604;2023-07-09T00:55:52;21.90;44.40
43991;DHT22;29654;50.784;20.604;2023-07-09T01:01:02;21.80;44.40
43991;DHT22;29654;50.784;20.604;2023-07-09T01:06:08;21.80;44.40
43991;DHT22;29654;50.784;20.604;2023-07-09T01:11:16;21.70;44.40
43991;DHT22;29654;50.784;20.604;2023-07-09T01:16:24;21.70;44.70
43991;DHT22;29654;50.784;20.604;2023-07-09T01:21:30;21.60;44.30
43991;DHT22;29654;50.784;20.604;2023-07-09T01:26:33;21.60;44.60
43991;DHT22;29654;50.784;20.604;2023-07-09T01:31:35;21.50;44.40
43991;DHT22;29654;50.784;20.604;2023-07-09T01:36:39;21.40;44.40
43991;DHT22;29654;50.784;20.604;2023-07-09T01:41:42;21.40;44.80
43991;DHT22;29654;50.784;20.604;2023-07-09T01:46:48;21.30;44.60
43991;DHT22;29654;50.784;20.604;2023-07-09T01:51:52;21.30;44.70
43991;DHT22;29654;50.784;20.604;2023-07-09T02:02:16;21.20;45.00
43991;DHT22;29654;50.784;20.604;2023-07-09T02:07:23;21.10;45.00
43991;DHT22;29654;50.784;20.604;2023-07-09T02:12:26;21.00;45.50
43991;DHT22;29654;50.784;20.604;2023-07-09T02:17:29;20.90;45.20
43991;DHT22;29654;50.784;20.604;2023-07-09T02:22:33;20.90;45.30
43991;DHT22;29654;50.784;20.604;2023-07-09T02:27:36;20.90;45.60
43991;DHT22;29654;50.784;20.604;2023-07-09T02:32:39;20.80;45.50
43991;DHT22;29654;50.784;20.604;2023-07-09T02:37:43;20.70;45.60
43991;DHT22;29654;50.784;20.604;2023-07-09T02:42:46;20.70;45.80
43991;DHT22;29654;50.784;20.604;2023-07-09T02:47:51;20.70;45.80
43991;DHT22;29654;50.784;20.604;2023-07-09T02:52:56;20.70;45.90
43991;DHT22;29654;50.784;20.604;2023-07-09T02:57:58;20.70;46.10
43991;DHT22;29654;50.784;20.604;2023-07-09T03:03:01;20.70;46.20
43991;DHT22;29654;50.784;20.604;2023-07-09T03:08:06;20.70;46.40
43991;DHT22;29654;50.784;20.604;2023-07-09T03:13:09;20.90;47.10
43991;DHT22;29654;50.784;20.604;2023-07-09T03:18:11;21.10;47.50
43991;DHT22;29654;50.784;20.604;2023-07-09T03:23:16;21.60;48.10
43991;DHT22;29654;50.784;20.604;2023-07-09T03:28:18;22.30;48.70
43991;DHT22;29654;50.784;20.604;2023-07-09T03:33:21;23.10;48.60
43991;DHT22;29654;50.784;20.604;2023-07-09T03:38:26;24.00;48.20
43991;DHT22;29654;50.784;20.604;2023-07-09T03:43:29;25.10;47.40
43991;DHT22;29654;50.784;20.604;2023-07-09T03:48:31;26.20;46.70
43991;DHT22;29654;50.784;20.604;2023-07-09T03:53:35;27.30;45.60
43991;DHT22;29654;50.784;20.604;2023-07-09T03:58:38;28.40;44.20
43991;DHT22;29654;50.784;20.604;2023-07-09T04:03:40;29.40;43.30
43991;DHT22;29654;50.784;20.604;2023-07-09T04:08:44;30.40;42.20
43991;DHT22;29654;50.784;20.604;2023-07-09T04:13:47;31.30;40.90
43991;DHT22;29654;50.784;20.604;2023-07-09T04:18:49;32.30;40.30
43991;DHT22;29654;50.784;20.604;2023-07-09T04:23:53;33.20;39.20
43991;DHT22;29654;50.784;20.604;2023-07-09T04:28:56;34.10;37.70
43991;DHT22;29654;50.784;20.604;2023-07-09T04:33:58;34.90;36.80
43991;DHT22;29654;50.784;20.604;2023-07-09T04:39:02;35.70;36.00
43991;DHT22;29654;50.784;20.604;2023-07-09T04:44:05;36.60;34.70
43991;DHT22;29654;50.784;20.604;2023-07-09T04:49:08;37.30;33.60
43991;DHT22;29654;50.784;20.604;2023-07-09T04:54:14;38.00;32.10
43991;DHT22;29654;50.784;20.604;2023-07-09T04:59:17;38.50;30.30
43991;DHT22;29654;50.784;20.604;2023-07-09T05:04:20;38.60;28.80
43991;DHT22;29654;50.784;20.604;2023-07-09T05:09:24;38.40;27.70
43991;DHT22;29654;50.784;20.604;2023-07-09T05:14:27;37.70;27.30
43991;DHT22;29654;50.784;20.604;2023-07-09T05:19:30;36.80;27.50
43991;DHT22;29654;50.784;20.604;2023-07-09T05:24:34;35.90;28.00
43991;DHT22;29654;50.784;20.604;2023-07-09T05:29:36;35.10;28.70
43991;DHT22;29654;50.784;20.604;2023-07-09T05:34:39;34.50;29.40
43991;DHT22;29654;50.784;20.604;2023-07-09T05:39:43;34.00;29.70
43991;DHT22;29654;50.784;20.604;2023-07-09T05:44:46;33.60;30.00
43991;DHT22;29654;50.784;20.604;2023-07-09T05:49:48;33.30;30.20
43991;DHT22;29654;50.784;20.604;2023-07-09T05:54:52;33.10;30.40
43991;DHT22;29654;50.784;20.604;2023-07-09T05:59:55;32.90;30.50
43991;DHT22;29654;50.784;20.604;2023-07-09T06:04:58;32.70;30.80
43991;DHT22;29654;50.784;20.604;2023-07-09T06:10:02;32.50;31.20
43991;DHT22;29654;50.784;20.604;2023-07-09T06:15:07;32.40;31.50
43991;DHT22;29654;50.784;20.604;2023-07-09T06:20:10;32.30;31.70
43991;DHT22;29654;50.784;20.604;2023-07-09T06:25:15;32.30;31.80
43991;DHT22;29654;50.784;20.604;2023-07-09T06:30:17;32.30;31.70
43991;DHT22;29654;50.784;20.604;2023-07-09T06:35:20;32.20;31.70
43991;DHT22;29654;50.784;20.604;2023-07-09T06:40:24;32.20;32.00
43991;DHT22;29654;50.784;20.604;2023-07-09T06:45:27;32.10;31.90
43991;DHT22;29654;50.784;20.604;2023-07-09T06:50:33;32.10;31.90
43991;DHT22;29654;50.784;20.604;2023-07-09T06:55:37;32.00;31.80
43991;DHT22;29654;50.784;20.604;2023-07-09T07:00:40;32.00;31.80
43991;DHT22;29654;50.784;20.604;2023-07-09T07:05:43;32.10;31.90
43991;DHT22;29654;50.784;20.604;2023-07-09T07:10:50;32.20;32.00
43991;DHT22;29654;50.784;20.604;2023-07-09T07:15:54;32.30;31.30
43991;DHT22;29654;50.784;20.604;2023-07-09T07:20:57;32.30;31.30
43991;DHT22;29654;50.784;20.604;2023-07-09T07:26:01;32.40;31.40
43991;DHT22;29654;50.784;20.604;2023-07-09T07:31:06;32.50;31.30
43991;DHT22;29654;50.784;20.604;2023-07-09T07:36:10;32.60;31.20
43991;DHT22;29654;50.784;20.604;2023-07-09T07:41:14;32.70;31.20
43991;DHT22;29654;50.784;20.604;2023-07-09T07:46:17;32.80;31.90
43991;DHT22;29654;50.784;20.604;2023-07-09T07:51:19;32.90;31.00
43991;DHT22;29654;50.784;20.604;2023-07-09T07:56:24;33.00;30.30
43991;DHT22;29654;50.784;20.604;2023-07-09T08:01:27;33.20;30.10
43991;DHT22;29654;50.784;20.604;2023-07-09T08:06:30;33.30;30.00
43991;DHT22;29654;50.784;20.604;2023-07-09T08:11:34;33.40;29.60
43991;DHT22;29654;50.784;20.604;2023-07-09T08:16:37;33.60;29.50
43991;DHT22;29654;50.784;20.604;2023-07-09T08:21:40;33.70;29.80
43991;DHT22;29654;50.784;20.604;2023-07-09T08:26:44;33.70;29.40
43991;DHT22;29654;50.784;20.604;2023-07-09T08:31:47;33.90;29.20
43991;DHT22;29654;50.784;20.604;2023-07-09T08:36:50;33.90;29.10
43991;DHT22;29654;50.784;20.604;2023-07-09T08:41:56;34.00;29.20
43991;DHT22;29654;50.784;20.604;2023-07-09T08:47:05;34.10;28.70
43991;DHT22;29654;50.784;20.604;2023-07-09T08:52:14;34.30;28.70
43991;DHT22;29654;50.784;20.604;2023-07-09T08:57:24;34.30;28.20
43991;DHT22;29654;50.784;20.604;2023-07-09T09:02:33;34.50;28.20
43991;DHT22;29654;50.784;20.604;2023-07-09T09:07:41;34.50;28.10
43991;DHT22;29654;50.784;20.604;2023-07-09T09:12:56;34.60;27.90
43991;DHT22;29654;50.784;20.604;2023-07-09T09:18:20;34.60;27.60
43991;DHT22;29654;50.784;20.604;2023-07-09T09:23:29;34.60;27.40
43991;DHT22;29654;50.784;20.604;2023-07-09T09:28:41;34.60;27.60
43991;DHT22;29654;50.784;20.604;2023-07-09T09:33:45;34.60;27.60
43991;DHT22;29654;50.784;20.604;2023-07-09T09:38:49;34.70;27.60
43991;DHT22;29654;50.784;20.604;2023-07-09T09:43:54;34.70;27.60
43991;DHT22;29654;50.784;20.604;2023-07-09T09:49:00;34.80;27.60
43991;DHT22;29654;50.784;20.604;2023-07-09T09:54:13;34.90;27.50
43991;DHT22;29654;50.784;20.604;2023-07-09T09:59:25;34.90;27.00
43991;DHT22;29654;50.784;20.604;2023-07-09T10:04:29;34.80;27.30
43991;DHT22;29654;50.784;20.604;2023-07-09T10:09:45;34.70;27.40
43991;DHT22;29654;50.784;20.604;2023-07-09T10:14:56;34.70;27.30
43991;DHT22;29654;50.784;20.604;2023-07-09T10:20:07;34.70;27.10
43991;DHT22;29654;50.784;20.604;2023-07-09T10:25:28;34.80;27.10
43991;DHT22;29654;50.784;20.604;2023-07-09T10:30:49;34.80;26.60
43991;DHT22;29654;50.784;20.604;2023-07-09T10:36:01;34.80;26.40
43991;DHT22;29654;50.784;20.604;2023-07-09T10:41:10;34.80;26.70
43991;DHT22;29654;50.784;20.604;2023-07-09T10:46:17;34.80;26.80
43991;DHT22;29654;50.784;20.604;2023-07-09T10:51:26;34.90;26.90
43991;DHT22;29654;50.784;20.604;2023-07-09T10:56:34;34.90;26.80
43991;DHT22;29654;50.784;20.604;2023-07-09T11:01:41;35.10;26.30
43991;DHT22;29654;50.784;20.604;2023-07-09T11:06:48;35.00;25.90
43991;DHT22;29654;50.784;20.604;2023-07-09T11:11:54;35.00;26.10
43991;DHT22;29654;50.784;20.604;2023-07-09T11:17:02;35.10;26.30
43991;DHT22;29654;50.784;20.604;2023-07-09T11:22:13;35.20;26.30
43991;DHT22;29654;50.784;20.604;2023-07-09T11:27:22;35.20;26.10
43991;DHT22;29654;50.784;20.604;2023-07-09T11:32:29;35.20;26.00
43991;DHT22;29654;50.784;20.604;2023-07-09T11:37:31;35.20;26.30
43991;DHT22;29654;50.784;20.604;2023-07-09T11:42:50;35.20;26.10
43991;DHT22;29654;50.784;20.604;2023-07-09T11:48:00;35.20;25.90
43991;DHT22;29654;50.784;20.604;2023-07-09T11:53:22;35.00;26.20
43991;DHT22;29654;50.784;20.604;2023-07-09T11:58:29;35.00;26.30
43991;DHT22;29654;50.784;20.604;2023-07-09T12:03:34;35.00;26.40
43991;DHT22;29654;50.784;20.604;2023-07-09T12:08:40;35.00;26.50
43991;DHT22;29654;50.784;20.604;2023-07-09T12:13:43;35.00;26.50
43991;DHT22;29654;50.784;20.604;2023-07-09T12:18:48;34.90;26.40
43991;DHT22;29654;50.784;20.604;2023-07-09T12:23:50;34.90;26.20
43991;DHT22;29654;50.784;20.604;2023-07-09T12:28:56;34.90;26.40
43991;DHT22;29654;50.784;20.604;2023-07-09T12:34:01;34.90;26.60
43991;DHT22;29654;50.784;20.604;2023-07-09T12:39:04;34.90;26.40
43991;DHT22;29654;50.784;20.604;2023-07-09T12:44:15;34.90;26.20
43991;DHT22;29654;50.784;20.604;2023-07-09T12:49:24;34.90;26.10
43991;DHT22;29654;50.784;20.604;2023-07-09T12:54:30;34.90;26.30
43991;DHT22;29654;50.784;20.604;2023-07-09T12:59:38;35.00;26.20
43991;DHT22;29654;50.784;20.604;2023-07-09T13:04:43;35.00;26.00
43991;DHT22;29654;50.784;20.604;2023-07-09T13:09:50;35.00;26.10
43991;DHT22;29654;50.784;20.604;2023-07-09T13:14:54;35.10;26.30
43991;DHT22;29654;50.784;20.604;2023-07-09T13:19:59;35.00;26.00
43991;DHT22;29654;50.784;20.604;2023-07-09T13:25:01;34.90;26.00
43991;DHT22;29654;50.784;20.604;2023-07-09T13:30:07;34.90;26.10
43991;DHT22;29654;50.784;20.604;2023-07-09T13:35:15;34.90;26.20
43991;DHT22;29654;50.784;20.604;2023-07-09T13:40:21;35.00;25.80
43991;DHT22;29654;50.784;20.604;2023-07-09T13:45:25;34.90;25.80
43991;DHT22;29654;50.784;20.604;2023-07-09T13:50:29;34.90;26.00
43991;DHT22;29654;50.784;20.604;2023-07-09T13:55:32;34.80;25.50
43991;DHT22;29654;50.784;20.604;2023-07-09T14:00:34;34.60;25.80
43991;DHT22;29654;50.784;20.604;2023-07-09T14:05:38;34.40;25.70
43991;DHT22;29654;50.784;20.604;2023-07-09T14:10:41;34.40;25.80
43991;DHT22;29654;50.784;20.604;2023-07-09T14:15:43;34.40;25.90
43991;DHT22;29654;50.784;20.604;2023-07-09T14:20:48;34.50;25.80
43991;DHT22;29654;50.784;20.604;2023-07-09T14:25:51;34.60;25.50
43991;DHT22;29654;50.784;20.604;2023-07-09T14:30:53;34.60;25.50
43991;DHT22;29654;50.784;20.604;2023-07-09T14:35:57;34.60;25.50
43991;DHT22;29654;50.784;20.604;2023-07-09T14:41:03;34.70;25.40
43991;DHT22;29654;50.784;20.604;2023-07-09T14:46:09;34.70;25.50
43991;DHT22;29654;50.784;20.604;2023-07-09T14:51:15;34.60;25.50
43991;DHT22;29654;50.784;20.604;2023-07-09T14:56:18;34.70;25.20
43991;DHT22;29654;50.784;20.604;2023-07-09T15:01:21;34.70;25.40
43991;DHT22;29654;50.784;20.604;2023-07-09T15:06:26;34.70;25.40
43991;DHT22;29654;50.784;20.604;2023-07-09T15:11:29;34.60;25.10
43991;DHT22;29654;50.784;20.604;2023-07-09T15:16:32;34.50;25.20
43991;DHT22;29654;50.784;20.604;2023-07-09T15:21:36;34.30;25.30
43991;DHT22;29654;50.784;20.604;2023-07-09T15:26:38;34.10;25.50
43991;DHT22;29654;50.784;20.604;2023-07-09T15:31:41;34.00;25.60
43991;DHT22;29654;50.784;20.604;2023-07-09T15:36:46;33.90;25.70
43991;DHT22;29654;50.784;20.604;2023-07-09T15:41:50;33.80;25.70
43991;DHT22;29654;50.784;20.604;2023-07-09T15:46:55;33.80;25.80
43991;DHT22;29654;50.784;20.604;2023-07-09T15:52:00;33.80;25.80
43991;DHT22;29654;50.784;20.604;2023-07-09T15:57:04;33.90;25.60
43991;DHT22;29654;50.784;20.604;2023-07-09T16:02:11;33.90;25.60
43991;DHT22;29654;50.784;20.604;2023-07-09T16:07:16;34.10;25.50
43991;DHT22;29654;50.784;20.604;2023-07-09T16:12:19;34.10;25.50
43991;DHT22;29654;50.784;20.604;2023-07-09T16:17:21;34.10;25.30
43991;DHT22;29654;50.784;20.604;2023-07-09T16:22:25;34.20;25.30
43991;DHT22;29654;50.784;20.604;2023-07-09T16:27:28;34.20;25.10
43991;DHT22;29654;50.784;20.604;2023-07-09T16:32:30;34.20;25.10
43991;DHT22;29654;50.784;20.604;2023-07-09T16:37:34;34.20;24.90
43991;DHT22;29654;50.784;20.604;2023-07-09T16:42:37;34.30;25.00
43991;DHT22;29654;50.784;20.604;2023-07-09T16:47:40;34.30;24.80
43991;DHT22;29654;50.784;20.604;2023-07-09T16:52:45;34.30;24.90
43991;DHT22;29654;50.784;20.604;2023-07-09T16:57:51;34.20;24.70
43991;DHT22;29654;50.784;20.604;2023-07-09T17:02:56;34.20;24.60
43991;DHT22;29654;50.784;20.604;2023-07-09T17:08:01;34.10;24.80
43991;DHT22;29654;50.784;20.604;2023-07-09T17:13:03;34.10;24.80
43991;DHT22;29654;50.784;20.604;2023-07-09T17:18:17;34.10;24.80
43991;DHT22;29654;50.784;20.604;2023-07-09T17:23:22;34.00;24.70
43991;DHT22;29654;50.784;20.604;2023-07-09T17:28:30;34.00;24.80
43991;DHT22;29654;50.784;20.604;2023-07-09T17:33:32;33.90;25.00
43991;DHT22;29654;50.784;20.604;2023-07-09T17:38:36;33.80;24.90
43991;DHT22;29654;50.784;20.604;2023-07-09T17:43:39;33.70;24.80
43991;DHT22;29654;50.784;20.604;2023-07-09T17:48:43;33.60;24.80
43991;DHT22;29654;50.784;20.604;2023-07-09T17:53:47;33.40;24.90
43991;DHT22;29654;50.784;20.604;2023-07-09T17:58:50;33.30;24.80
43991;DHT22;29654;50.784;20.604;2023-07-09T18:03:52;33.10;24.90
43991;DHT22;29654;50.784;20.604;2023-07-09T18:08:56;33.00;25.00
43991;DHT22;29654;50.784;20.604;2023-07-09T18:13:59;32.90;25.00
43991;DHT22;29654;50.784;20.604;2023-07-09T18:19:03;32.80;25.10
43991;DHT22;29654;50.784;20.604;2023-07-09T18:24:07;32.60;25.20
43991;DHT22;29654;50.784;20.604;2023-07-09T18:29:27;32.40;25.30
43991;DHT22;29654;50.784;20.604;2023-07-09T18:34:32;32.20;25.40
43991;DHT22;29654;50.784;20.604;2023-07-09T18:39:37;31.90;25.50
43991;DHT22;29654;50.784;20.604;2023-07-09T18:44:40;31.70;25.60
43991;DHT22;29654;50.784;20.604;2023-07-09T18:49:43;31.50;25.70
43991;DHT22;29654;50.784;20.604;2023-07-09T18:54:51;31.40;25.80
43991;DHT22;29654;50.784;20.604;2023-07-09T18:59:55;31.10;26.00
43991;DHT22;29654;50.784;20.604;2023-07-09T19:04:57;30.90;26.10
43991;DHT22;29654;50.784;20.604;2023-07-09T19:10:01;30.70;26.20
43991;DHT22;29654;50.784;20.604;2023-07-09T19:15:05;30.60;26.40
43991;DHT22;29654;50.784;20.604;2023-07-09T19:20:15;30.30;26.40
43991;DHT22;29654;50.784;20.604;2023-07-09T19:25:25;30.20;26.70
43991;DHT22;29654;50.784;20.604;2023-07-09T19:30:31;30.00;26.70
43991;DHT22;29654;50.784;20.604;2023-07-09T19:35:34;29.90;26.90
43991;DHT22;29654;50.784;20.604;2023-07-09T19:40:38;29.70;27.10
43991;DHT22;29654;50.784;20.604;2023-07-09T19:45:43;29.60;27.30
43991;DHT22;29654;50.784;20.604;2023-07-09T19:50:48;29.40;27.30
43991;DHT22;29654;50.784;20.604;2023-07-09T19:55:52;29.30;27.40
43991;DHT22;29654;50.784;20.604;2023-07-09T20:00:55;29.10;27.50
43991;DHT22;29654;50.784;20.604;2023-07-09T20:05:59;29.00;27.60
43991;DHT22;29654;50.784;20.604;2023-07-09T20:11:08;28.90;27.80
43991;DHT22;29654;50.784;20.604;2023-07-09T20:16:24;28.80;28.00
43991;DHT22;29654;50.784;20.604;2023-07-09T20:21:29;28.60;28.30
43991;DHT22;29654;50.784;20.604;2023-07-09T20:26:33;28.50;28.40
43991;DHT22;29654;50.784;20.604;2023-07-09T20:31:36;28.30;28.80
43991;DHT22;29654;50.784;20.604;2023-07-09T20:36:38;28.20;29.20
43991;DHT22;29654;50.784;20.604;2023-07-09T20:41:43;28.00;29.30
43991;DHT22;29654;50.784;20.604;2023-07-09T20:46:47;27.80;29.90
43991;DHT22;29654;50.784;20.604;2023-07-09T20:51:49;27.60;30.00
43991;DHT22;29654;50.784;20.604;2023-07-09T20:56:56;27.30;30.20
43991;DHT22;29654;50.784;20.604;2023-07-09T21:02:00;27.10;31.20
43991;DHT22;29654;50.784;20.604;2023-07-09T21:07:04;26.90;31.10
43991;DHT22;29654;50.784;20.604;2023-07-09T21:12:14;26.70;31.30
43991;DHT22;29654;50.784;20.604;2023-07-09T21:17:19;26.50;31.90
43991;DHT22;29654;50.784;20.604;2023-07-09T21:22:23;26.30;31.80
43991;DHT22;29654;50.784;20.604;2023-07-09T21:27:28;26.10;32.10
43991;DHT22;29654;50.784;20.604;2023-07-09T21:32:31;26.00;32.40
43991;DHT22;29654;50.784;20.604;2023-07-09T21:37:33;25.80;32.60
43991;DHT22;29654;50.784;20.604;2023-07-09T21:42:37;25.60;32.90
43991;DHT22;29654;50.784;20.604;2023-07-09T21:47:40;25.40;33.30
43991;DHT22;29654;50.784;20.604;2023-07-09T21:52:42;25.30;33.40
43991;DHT22;29654;50.784;20.604;2023-07-09T21:57:49;25.10;33.60
43991;DHT22;29654;50.784;20.604;2023-07-09T22:02:54;24.90;34.00
43991;DHT22;29654;50.784;20.604;2023-07-09T22:07:57;24.80;34.20
43991;DHT22;29654;50.784;20.604;2023-07-09T22:13:04;24.70;34.30
43991;DHT22;29654;50.784;20.604;2023-07-09T22:18:13;24.60;35.00
43991;DHT22;29654;50.784;20.604;2023-07-09T22:23:20;24.50;35.40
43991;DHT22;29654;50.784;20.604;2023-07-09T22:28:25;24.30;35.30
43991;DHT22;29654;50.784;20.604;2023-07-09T22:33:27;24.20;35.50
43991;DHT22;29654;50.784;20.604;2023-07-09T22:38:31;24.10;35.60
43991;DHT22;29654;50.784;20.604;2023-07-09T22:43:35;24.00;35.80
43991;DHT22;29654;50.784;20.604;2023-07-09T22:48:38;23.90;36.20
43991;DHT22;29654;50.784;20.604;2023-07-09T22:53:43;23.80;36.20
43991;DHT22;29654;50.784;20.604;2023-07-09T22:58:47;23.70;36.40
43991;DHT22;29654;50.784;20.604;2023-07-09T23:03:50;23.60;36.80
43991;DHT22;29654;50.784;20.604;2023-07-09T23:08:54;23.60;36.70
43991;DHT22;29654;50.784;20.604;2023-07-09T23:13:59;23.50;37.10
43991;DHT22;29654;50.784;20.604;2023-07-09T23:19:14;23.40;37.30
43991;DHT22;29654;50.784;20.604;2023-07-09T23:24:19;23.40;38.10
43991;DHT22;29654;50.784;20.604;2023-07-09T23:29:24;23.30;37.60
43991;DHT22;29654;50.784;20.604;2023-07-09T23:34:27;23.20;38.10
43991;DHT22;29654;50.784;20.604;2023-07-09T23:39:30;23.10;37.90
43991;DHT22;29654;50.784;20.604;2023-07-09T23:44:35;23.00;38.20
43991;DHT22;29654;50.784;20.604;2023-07-09T23:49:38;22.90;38.40
43991;DHT22;29654;50.784;20.604;2023-07-09T23:54:40;22.80;38.40
43991;DHT22;29654;50.784;20.604;2023-07-09T23:59:44;22.80;38.60
